Maykop, Russia
Current Conditions -  °F | °C
As of 11:30 AM on Friday 21 Nov 2014 (Local Time) from URKK Reporting Station
Broken Clouds Broken Clouds  
Wind Chill: 33°   Ceiling: 14000
Heat Index: 41°   Visibility: 6mi
Dew Point: 36°   Wind: 16mph
Humidity: 81%   Direction: 90°E
Pressure: 30.06"   Gusts: 22mph
Location:  44.61°N, 40.11°E
Report Text: URKK 210830Z 09007G10MPS 9999 SCT016 BKN140 05/02 Q1018 NOSIGRMK QFE761 SC070
Loading
Personal Weather Stations






























Interactive Weather Map New forecast layout! Learn more

10-Day Weather Forecast

Advertisements
Track Severe Weather on mobile